Grant Valley, Minnesota
Current Conditions -  °F | °C
As of 3:31 AM on Saturday 20 Dec 2014 (Local Time) from KBJI Reporting Station
Haze Haze  
Wind Chill: 22°   Ceiling: 200
Heat Index: 28°   Visibility: 1.7mi
Dew Point: 27°   Wind: 5mph
Humidity: 99%   Direction: 150°SSE
Pressure: 30.02"   Gusts: NA
Location:  47.5271°N, 94.7611°W
Report Text: KBJI 200931Z AUTO 15004KT 1 3/4SM BR OVC002 M02/M03 A3002 RMK AO2 T10251027
Loading
Personal Weather Stations






























Interactive Weather Map New forecast layout! Learn more

10-Day Weather Forecast

Advertisements
Track Severe Weather on mobile